Time;durP1;ratioP1;P1;durP2;ratioP2;P2;SDS_P1;SDS_P2;PMS_P1;PMS_P2;Temp;Humidity;BMP_temperature;BMP_pressure;BME280_temperature;BME280_humidity;BME280_pressure;Samples;Min_cycle;Max_cycle;Signal;HPM_P1;HPM_P2
2022/06/13 00:02:07;;;;;;;8.80;3.47;;;15.00;99.90;;;;;;5036229;28;20646;-55
2022/06/13 00:04:35;;;;;;;8.73;3.40;;;15.10;99.90;;;;;;5045660;28;20201;-55
2022/06/13 00:07:02;;;;;;;6.07;3.37;;;15.20;99.90;;;;;;5041286;28;20314;-55
2022/06/13 00:09:29;;;;;;;9.90;3.27;;;15.20;99.90;;;;;;5045451;28;20558;-55
2022/06/13 00:11:56;;;;;;;4.47;3.13;;;15.20;99.90;;;;;;5040720;28;20296;-54
2022/06/13 00:14:23;;;;;;;10.27;3.47;;;15.30;99.90;;;;;;5044645;28;20237;-55
2022/06/13 00:16:50;;;;;;;7.17;3.47;;;15.30;99.90;;;;;;5045737;28;20309;-55
2022/06/13 00:19:17;;;;;;;6.20;3.07;;;15.20;99.90;;;;;;5048304;28;20600;-56
2022/06/13 00:21:43;;;;;;;7.80;3.70;;;15.30;99.90;;;;;;5042284;28;21041;-55
2022/06/13 00:24:10;;;;;;;8.80;3.60;;;15.20;99.90;;;;;;5044011;28;20683;-56
2022/06/13 00:26:37;;;;;;;6.60;3.60;;;15.20;99.90;;;;;;5041703;28;20229;-55
2022/06/13 00:29:05;;;;;;;7.60;3.13;;;15.20;99.90;;;;;;5041449;28;20212;-56
2022/06/13 00:31:32;;;;;;;10.07;3.27;;;15.20;99.90;;;;;;5042783;28;20214;-56
2022/06/13 00:33:59;;;;;;;8.00;3.13;;;15.20;99.90;;;;;;5048054;28;20293;-55
2022/06/13 00:36:26;;;;;;;7.97;4.50;;;15.30;99.90;;;;;;5038040;28;20278;-55
2022/06/13 00:38:55;;;;;;;11.07;3.57;;;15.20;99.90;;;;;;5046204;28;20197;-55
2022/06/13 00:41:30;;;;;;;5.40;3.70;;;15.30;99.90;;;;;;5038757;28;20201;-55
2022/06/13 00:44:00;;;;;;;9.47;3.93;;;15.20;99.90;;;;;;5040289;28;20275;-55
2022/06/13 00:46:34;;;;;;;8.70;3.87;;;15.40;99.90;;;;;;5036508;28;20371;-55
2022/06/13 00:49:07;;;;;;;5.83;3.13;;;15.30;90.00;;;;;;5038144;28;20703;-55
2022/06/13 00:51:39;;;;;;;6.10;2.97;;;15.40;21.60;;;;;;5037741;28;20219;-55
2022/06/13 00:54:07;;;;;;;9.20;4.10;;;15.20;1.00;;;;;;5046476;28;20271;-56
2022/06/13 00:56:36;;;;;;;6.97;3.30;;;15.40;9.70;;;;;;5044282;28;20207;-56
2022/06/13 00:59:09;;;;;;;5.73;3.60;;;15.40;4.20;;;;;;5040774;28;20206;-56
2022/06/13 01:01:36;;;;;;;7.13;3.30;;;15.50;37.50;;;;;;5046565;28;20279;-56
2022/06/13 01:04:05;;;;;;;5.17;3.07;;;15.40;93.90;;;;;;5039818;28;20691;-55
2022/06/13 01:06:35;;;;;;;8.20;3.27;;;15.40;95.00;;;;;;5035213;28;20245;-56
2022/06/13 01:09:06;;;;;;;6.20;3.40;;;15.50;99.90;;;;;;5044794;28;20228;-57
2022/06/13 01:11:34;;;;;;;11.47;3.77;;;15.60;37.50;;;;;;5037024;28;20275;-55
2022/06/13 01:14:24;;;;;;;8.47;3.47;;;15.60;18.20;;;;;;5043116;28;20199;-55
2022/06/13 01:16:54;;;;;;;5.80;3.27;;;15.60;1.00;;;;;;5031011;28;22323;-55
2022/06/13 01:19:59;;;;;;;7.97;3.63;;;15.50;1.00;;;;;;5046025;28;20642;-56
2022/06/13 01:23:05;;;;;;;10.50;3.77;;;15.40;34.50;;;;;;5057473;28;20700;-55
2022/06/13 01:25:34;;;;;;;8.80;3.30;;;15.50;76.20;;;;;;4957394;28;20234;-55
2022/06/13 01:28:28;;;;;;;9.20;4.13;;;15.50;70.70;;;;;;4953768;28;20194;-55
2022/06/13 01:31:09;;;;;;;5.77;3.33;;;15.50;45.40;;;;;;5017138;28;20245;-55
2022/06/13 01:33:42;;;;;;;6.43;3.67;;;15.50;43.30;;;;;;5043384;28;20727;-56
2022/06/13 01:36:34;;;;;;;6.70;3.73;;;15.60;1.00;;;;;;5050484;28;20238;-57
2022/06/13 01:39:10;;;;;;;6.07;3.60;;;15.50;7.50;;;;;;5045763;28;20621;-54
2022/06/13 01:41:52;;;;;;;8.60;4.00;;;15.60;1.00;;;;;;5040980;28;20207;-56
2022/06/13 01:45:05;;;;;;;10.47;3.53;;;15.40;1.00;;;;;;5039788;28;20203;-56
2022/06/13 01:47:56;;;;;;;9.10;3.97;;;15.30;17.80;;;;;;5050497;28;20255;-55
2022/06/13 01:50:30;;;;;;;6.40;3.97;;;15.20;92.60;;;;;;5049597;28;21052;-55
2022/06/13 01:53:09;;;;;;;7.53;3.93;;;15.30;53.00;;;;;;5031651;28;20195;-54
2022/06/13 01:55:39;;;;;;;14.90;5.00;;;15.30;28.50;;;;;;5049609;28;20618;-57
2022/06/13 01:58:21;;;;;;;8.67;3.97;;;15.30;1.00;;;;;;5033382;28;20345;-54
2022/06/13 02:01:08;;;;;;;7.43;3.60;;;15.30;54.20;;;;;;5043595;28;20363;-55
2022/06/13 02:04:03;;;;;;;11.50;3.93;;;15.40;16.90;;;;;;5044899;28;20538;-55
2022/06/13 02:06:35;;;;;;;9.00;3.63;;;15.50;8.80;;;;;;5045708;28;20307;-59
2022/06/13 02:09:11;;;;;;;7.23;3.90;;;15.40;45.40;;;;;;5038029;28;20198;-55
2022/06/13 02:11:47;;;;;;;8.07;3.67;;;15.40;99.90;;;;;;5043614;28;20195;-54
2022/06/13 02:14:31;;;;;;;13.93;4.10;;;15.40;99.90;;;;;;5063779;28;20211;-59
2022/06/13 02:17:14;;;;;;;7.80;3.80;;;15.50;99.90;;;;;;5051167;28;20227;-56
2022/06/13 02:20:10;;;;;;;6.10;3.57;;;15.40;87.50;;;;;;5042726;28;20196;-54
2022/06/13 02:22:48;;;;;;;6.87;4.10;;;15.40;91.40;;;;;;5039924;28;20775;-55
2022/06/13 02:25:20;;;;;;;11.07;4.03;;;15.20;99.90;;;;;;5050952;28;20574;-56
2022/06/13 02:28:11;;;;;;;11.30;4.23;;;15.00;99.90;;;;;;5052994;28;20642;-54
2022/06/13 02:30:49;;;;;;;11.07;5.17;;;15.10;99.90;;;;;;5045312;28;20735;-59
2022/06/13 02:33:26;;;;;;;8.03;4.13;;;15.10;99.90;;;;;;5036890;28;20738;-56
2022/06/13 02:35:59;;;;;;;8.20;4.47;;;15.30;99.90;;;;;;5045828;28;20228;-55
2022/06/13 02:38:46;;;;;;;8.37;5.17;;;15.30;99.90;;;;;;5043826;28;20257;-55
2022/06/13 02:41:19;;;;;;;12.63;5.00;;;15.30;99.90;;;;;;5036745;28;20783;-55
2022/06/13 02:43:51;;;;;;;10.33;4.03;;;15.30;99.90;;;;;;5013033;28;20760;-54
2022/06/13 02:46:31;;;;;;;10.33;4.93;;;15.20;99.90;;;;;;5046572;28;20268;-55
2022/06/13 02:49:04;;;;;;;11.77;4.80;;;15.20;99.90;;;;;;5042257;28;20249;-56
2022/06/13 02:52:08;;;;;;;12.47;4.60;;;15.20;99.90;;;;;;5038650;28;20241;-55
2022/06/13 02:54:50;;;;;;;14.23;5.20;;;15.20;99.90;;;;;;5029840;28;20224;-55
2022/06/13 02:57:32;;;;;;;11.23;5.10;;;15.20;99.90;;;;;;5041480;28;20264;-56
2022/06/13 03:00:19;;;;;;;11.33;4.73;;;15.30;99.90;;;;;;5033680;28;20282;-55
2022/06/13 03:03:21;;;;;;;10.23;5.10;;;15.20;99.90;;;;;;5047584;28;20379;-55
2022/06/13 03:06:19;;;;;;;10.03;4.87;;;15.30;99.90;;;;;;5046794;28;20292;-56
2022/06/13 03:08:53;;;;;;;8.37;4.67;;;15.20;99.90;;;;;;5046037;28;20209;-55
2022/06/13 03:11:39;;;;;;;12.40;5.47;;;15.00;99.90;;;;;;5045814;28;20286;-54
2022/06/13 03:14:19;;;;;;;12.50;5.30;;;14.90;99.90;;;;;;5045993;28;20706;-55
2022/06/13 03:17:04;;;;;;;11.30;5.40;;;14.80;99.90;;;;;;5043954;28;20203;-54
2022/06/13 03:19:44;;;;;;;12.40;5.47;;;15.00;99.90;;;;;;5046926;28;20684;-55
2022/06/13 03:22:50;;;;;;;9.63;5.60;;;15.00;99.90;;;;;;5056787;28;20244;-55
2022/06/13 03:25:41;;;;;;;14.90;5.83;;;14.80;99.90;;;;;;5044471;28;20354;-55
2022/06/13 03:28:28;;;;;;;14.03;6.07;;;14.90;99.90;;;;;;5048018;28;20208;-55
2022/06/13 03:31:18;;;;;;;11.03;5.83;;;14.80;99.90;;;;;;5047852;28;20217;-54
2022/06/13 03:33:49;;;;;;;14.70;5.93;;;14.90;99.90;;;;;;5045783;28;20211;-55
2022/06/13 03:36:29;;;;;;;11.83;5.97;;;15.10;99.90;;;;;;5047183;28;20589;-56
2022/06/13 03:39:12;;;;;;;13.10;6.00;;;15.00;99.90;;;;;;5043097;28;20830;-55
2022/06/13 03:41:57;;;;;;;11.80;5.70;;;14.90;99.90;;;;;;5039916;28;20200;-56
2022/06/13 03:44:32;;;;;;;14.27;5.60;;;14.90;99.90;;;;;;5042829;28;20237;-54
2022/06/13 03:47:06;;;;;;;9.83;5.70;;;14.70;99.90;;;;;;5047473;28;20214;-57
2022/06/13 03:49:41;;;;;;;11.40;5.40;;;14.70;99.90;;;;;;5047568;28;20292;-57
2022/06/13 03:52:11;;;;;;;10.93;5.63;;;14.70;99.90;;;;;;5045769;28;20291;-55
2022/06/13 03:55:04;;;;;;;11.73;5.43;;;14.80;99.90;;;;;;5046368;28;20236;-56
2022/06/13 03:58:00;;;;;;;10.93;5.33;;;14.90;99.90;;;;;;5033400;28;20223;-56
2022/06/13 04:00:38;;;;;;;13.23;5.63;;;14.90;99.90;;;;;;5045028;28;20302;-55
2022/06/13 04:03:07;;;;;;;12.13;5.50;;;14.80;99.90;;;;;;5040892;28;20360;-56
2022/06/13 04:06:02;;;;;;;13.53;6.37;;;14.90;99.90;;;;;;5048711;28;20967;-56
2022/06/13 04:08:32;;;;;;;12.13;5.83;;;14.90;99.90;;;;;;5039429;28;20205;-56
2022/06/13 04:11:13;;;;;;;12.33;6.30;;;15.00;99.90;;;;;;5045601;28;20226;-56
2022/06/13 04:14:13;;;;;;;12.03;5.53;;;14.90;99.90;;;;;;5043043;28;20670;-56
2022/06/13 04:16:54;;;;;;;10.00;5.87;;;14.80;99.90;;;;;;5044860;28;20314;-56
2022/06/13 04:19:40;;;;;;;9.97;6.20;;;15.00;99.90;;;;;;5046207;28;20271;-56
2022/06/13 04:22:13;;;;;;;11.23;5.47;;;15.10;99.90;;;;;;5044210;28;20265;-57
2022/06/13 04:24:55;;;;;;;13.60;5.77;;;15.20;99.90;;;;;;5046179;28;20254;-57
2022/06/13 04:27:33;;;;;;;12.67;5.83;;;15.10;99.90;;;;;;5047024;28;20203;-55
2022/06/13 04:30:10;;;;;;;13.30;5.60;;;15.00;99.90;;;;;;5045906;28;20192;-56
2022/06/13 04:32:55;;;;;;;10.90;6.93;;;15.20;99.90;;;;;;5039554;28;20289;-55
2022/06/13 04:35:23;;;;;;;13.30;6.23;;;15.30;99.90;;;;;;5040879;28;20502;-56
2022/06/13 04:37:50;;;;;;;16.10;6.47;;;15.30;99.90;;;;;;5035425;28;20309;-55
2022/06/13 04:40:24;;;;;;;15.37;6.07;;;15.20;99.90;;;;;;5038745;28;20306;-55
2022/06/13 04:42:54;;;;;;;9.03;5.47;;;15.30;99.90;;;;;;5036215;28;20752;-55
2022/06/13 04:45:27;;;;;;;14.00;7.03;;;15.50;99.90;;;;;;5045901;28;20264;-55
2022/06/13 04:47:57;;;;;;;13.07;6.80;;;15.40;99.90;;;;;;5041331;28;20410;-56
2022/06/13 04:50:37;;;;;;;15.13;5.53;;;15.60;99.90;;;;;;5042094;28;20228;-55
2022/06/13 04:53:11;;;;;;;11.63;5.67;;;15.60;70.00;;;;;;5044895;28;20614;-55
2022/06/13 04:55:47;;;;;;;14.17;5.50;;;15.50;99.90;;;;;;5052466;28;20285;-56
2022/06/13 04:58:33;;;;;;;13.03;4.97;;;15.60;99.90;;;;;;5051228;28;20643;-56
2022/06/13 05:01:14;;;;;;;12.63;5.07;;;15.80;17.30;;;;;;5047080;28;20370;-55
2022/06/13 05:03:43;;;;;;;13.53;4.90;;;15.80;1.00;;;;;;5050787;28;20300;-56
2022/06/13 05:06:35;;;;;;;10.93;4.60;;;15.80;1.00;;;;;;5048524;28;20309;-56
2022/06/13 05:09:09;;;;;;;10.20;3.87;;;16.00;1.00;;;;;;5050716;28;20939;-56
2022/06/13 05:11:39;;;;;;;7.90;4.13;;;16.00;1.00;;;;;;5048158;28;20329;-56
2022/06/13 05:14:28;;;;;;;9.47;3.60;;;16.00;1.00;;;;;;5045782;28;21225;-56
2022/06/13 05:17:14;;;;;;;9.20;3.37;;;16.10;1.00;;;;;;5040939;28;20300;-56
2022/06/13 05:19:51;;;;;;;11.40;3.40;;;16.20;1.00;;;;;;5043698;28;20196;-55
2022/06/13 05:22:33;;;;;;;11.37;3.27;;;16.20;1.00;;;;;;5038088;28;20295;-56
2022/06/13 05:25:19;;;;;;;6.90;3.57;;;16.20;1.00;;;;;;5037178;28;20206;-56
2022/06/13 05:27:45;;;;;;;6.27;3.13;;;16.30;99.90;;;;;;5041267;28;20936;-57
2022/06/13 05:30:15;;;;;;;10.40;3.27;;;16.50;99.90;;;;;;5019932;28;20232;-57
2022/06/13 05:32:43;;;;;;;8.50;4.00;;;16.40;99.90;;;;;;5040563;28;20197;-55
2022/06/13 05:35:23;;;;;;;10.33;3.33;;;16.50;99.90;;;;;;5057573;28;20741;-57
2022/06/13 05:37:52;;;;;;;8.33;3.10;;;16.50;99.90;;;;;;5043035;28;20277;-56
2022/06/13 05:40:21;;;;;;;10.07;3.60;;;16.50;1.00;;;;;;5044785;28;20287;-56
2022/06/13 05:42:48;;;;;;;8.43;2.77;;;16.50;91.00;;;;;;5041258;28;20359;-56
2022/06/13 05:45:18;;;;;;;9.67;2.80;;;16.50;1.00;;;;;;5031798;28;20290;-56
2022/06/13 05:47:48;;;;;;;8.03;2.57;;;16.50;1.00;;;;;;5036075;28;20229;-56
2022/06/13 05:50:18;;;;;;;6.67;2.30;;;16.60;1.00;;;;;;5039254;28;20261;-56
2022/06/13 05:52:44;;;;;;;8.87;3.00;;;16.50;1.00;;;;;;5039947;28;20720;-57
2022/06/13 05:55:12;;;;;;;10.93;3.10;;;16.70;1.00;;;;;;5035959;28;20196;-57
2022/06/13 05:57:58;;;;;;;7.60;2.70;;;16.70;1.00;;;;;;5028661;28;20779;-56
2022/06/13 06:00:30;;;;;;;11.73;3.53;;;16.70;1.00;;;;;;5035039;28;20289;-57
2022/06/13 06:02:57;;;;;;;6.53;2.60;;;16.50;1.00;;;;;;5034465;28;20226;-55
2022/06/13 06:05:24;;;;;;;5.17;2.30;;;16.40;1.00;;;;;;5036599;28;21690;-55
2022/06/13 06:07:50;;;;;;;8.57;2.70;;;16.40;99.90;;;;;;5049509;28;20244;-56
2022/06/13 06:10:20;;;;;;;6.27;2.53;;;16.40;1.00;;;;;;5051078;28;20223;-56
2022/06/13 06:12:47;;;;;;;8.63;2.17;;;16.50;1.00;;;;;;5030485;28;20209;-56
2022/06/13 06:15:14;;;;;;;13.40;2.37;;;16.50;99.90;;;;;;5045282;28;20321;-56
2022/06/13 06:17:41;;;;;;;10.40;2.37;;;16.40;99.90;;;;;;5036650;28;20206;-56
2022/06/13 06:20:11;;;;;;;5.00;2.57;;;16.60;99.90;;;;;;5048771;28;20233;-57
2022/06/13 06:22:38;;;;;;;5.17;1.93;;;16.50;99.90;;;;;;5041075;28;20196;-57
2022/06/13 06:25:05;;;;;;;4.53;1.63;;;16.70;99.90;;;;;;5048874;28;20274;-63
2022/06/13 06:27:32;;;;;;;9.70;1.90;;;16.60;1.00;;;;;;5044624;28;20314;-55
2022/06/13 06:29:58;;;;;;;4.93;1.73;;;16.60;1.00;;;;;;5034897;28;20222;-55
2022/06/13 06:32:25;;;;;;;6.63;1.77;;;16.70;1.00;;;;;;5042680;28;20211;-54
2022/06/13 06:34:52;;;;;;;2.70;1.60;;;16.70;99.90;;;;;;5044316;28;20293;-54
2022/06/13 06:37:19;;;;;;;3.07;1.50;;;16.90;13.80;;;;;;5045498;28;20278;-55
2022/06/13 06:39:47;;;;;;;4.97;1.83;;;17.10;99.90;;;;;;5049446;28;20729;-56
2022/06/13 06:42:14;;;;;;;5.97;1.67;;;17.30;1.00;;;;;;5042603;28;20327;-54
2022/06/13 06:44:53;;;;;;;4.50;1.70;;;17.40;1.00;;;;;;5050645;28;20311;-56
2022/06/13 06:47:20;;;;;;;5.27;1.37;;;17.40;1.00;;;;;;5046352;28;20207;-57
2022/06/13 06:49:47;;;;;;;8.10;2.00;;;17.60;1.00;;;;;;5050801;28;20317;-56
2022/06/13 06:52:14;;;;;;;3.00;1.73;;;17.90;1.00;;;;;;5046011;28;20197;-56
2022/06/13 07:00:12;;;;;;;4.63;1.60;;;18.20;1.00;;;;;;5043760;28;21522;-55
2022/06/13 07:02:39;;;;;;;7.27;2.83;;;18.20;1.00;;;;;;5031764;28;20831;-54
2022/06/13 07:05:07;;;;;;;3.73;1.60;;;18.30;43.90;;;;;;5059306;28;20222;-56
2022/06/13 07:07:34;;;;;;;5.13;2.73;;;17.80;1.00;;;;;;5045107;28;20196;-56
2022/06/13 07:10:01;;;;;;;3.07;1.73;;;17.80;1.00;;;;;;5045792;28;20206;-56
2022/06/13 07:12:28;;;;;;;7.77;1.93;;;18.10;1.00;;;;;;5042672;28;20192;-54
2022/06/13 07:14:54;;;;;;;3.73;1.60;;;18.00;1.00;;;;;;5049493;28;20238;-56
2022/06/13 07:17:22;;;;;;;9.30;1.90;;;18.40;1.00;;;;;;5043830;28;20244;-54
2022/06/13 07:19:49;;;;;;;7.37;1.87;;;18.30;1.00;;;;;;5024749;28;20241;-55
2022/06/13 07:22:18;;;;;;;3.50;1.67;;;18.00;99.90;;;;;;5044713;28;20558;-56
2022/06/13 07:24:46;;;;;;;8.23;1.93;;;18.00;1.00;;;;;;5044983;28;20962;-55
2022/06/13 07:27:14;;;;;;;8.17;2.37;;;18.00;1.00;;;;;;5042836;28;20296;-54
2022/06/13 07:29:42;;;;;;;9.07;2.23;;;18.10;1.00;;;;;;5051840;28;20234;-55
2022/06/13 07:32:20;;;;;;;6.83;1.63;;;17.90;1.00;;;;;;5046942;28;20617;-55
2022/06/13 07:34:51;;;;;;;6.10;2.20;;;17.80;99.90;;;;;;5034514;28;20283;-54
2022/06/13 07:40:08;;;;;;;5.07;1.63;;;18.10;1.00;;;;;;5045389;28;20218;-56
2022/06/13 07:42:46;;;;;;;3.70;1.67;;;18.00;1.00;;;;;;5046622;28;20228;-56
2022/06/13 07:45:16;;;;;;;2.60;1.90;;;18.80;7.30;;;;;;5047640;28;20734;-61
2022/06/13 07:48:03;;;;;;;6.13;2.17;;;18.50;99.90;;;;;;5046038;28;20224;-56
2022/06/13 07:50:30;;;;;;;6.97;1.80;;;18.90;99.90;;;;;;5048964;28;20282;-55
2022/06/13 07:52:57;;;;;;;6.50;2.03;;;18.90;1.00;;;;;;5045871;28;20256;-55
2022/06/13 07:55:26;;;;;;;4.60;1.53;;;19.20;99.90;;;;;;5043443;28;20211;-55
2022/06/13 07:57:53;;;;;;;6.53;1.50;;;19.20;99.90;;;;;;5048792;28;20617;-56
2022/06/13 08:00:25;;;;;;;5.93;1.83;;;19.50;1.00;;;;;;5046924;28;20256;-55
2022/06/13 08:02:53;;;;;;;4.50;1.50;;;19.00;1.00;;;;;;5047219;28;20565;-54
2022/06/13 08:05:21;;;;;;;4.57;1.50;;;19.00;1.00;;;;;;5041803;28;20736;-56
2022/06/13 08:07:48;;;;;;;2.93;1.43;;;19.10;17.40;;;;;;5046449;28;20202;-56
2022/06/13 08:10:15;;;;;;;4.13;1.23;;;19.90;1.00;;;;;;5038594;28;20235;-56
2022/06/13 08:12:44;;;;;;;6.00;1.60;;;19.80;1.00;;;;;;5046736;28;20228;-56
2022/06/13 08:15:13;;;;;;;5.33;1.67;;;19.70;1.00;;;;;;5047953;28;20202;-55
2022/06/13 08:17:40;;;;;;;2.47;1.03;;;19.60;1.00;;;;;;5036362;28;20243;-56
2022/06/13 08:20:08;;;;;;;3.90;1.50;;;19.70;99.90;;;;;;5048761;28;20204;-55
2022/06/13 08:22:44;;;;;;;4.40;1.10;;;20.00;1.00;;;;;;5045975;28;20202;-56
2022/06/13 08:25:25;;;;;;;3.63;1.47;;;20.00;99.90;;;;;;5045294;28;20277;-56
2022/06/13 08:27:53;;;;;;;2.60;1.03;;;20.20;99.90;;;;;;5051664;28;20253;-55
2022/06/13 08:30:20;;;;;;;6.77;1.00;;;20.10;99.90;;;;;;5047449;28;20765;-56
2022/06/13 08:32:47;;;;;;;4.00;1.20;;;20.00;1.00;;;;;;5047342;28;20627;-55
2022/06/13 08:35:14;;;;;;;3.10;1.03;;;19.80;1.00;;;;;;5050950;28;20881;-56
2022/06/13 08:37:41;;;;;;;7.23;1.53;;;19.50;99.90;;;;;;5044275;28;20212;-55
2022/06/13 08:40:10;;;;;;;3.87;1.20;;;19.30;32.10;;;;;;5045163;28;20296;-55
2022/06/13 08:42:44;;;;;;;2.30;0.90;;;19.10;1.00;;;;;;5033069;28;20306;-55
2022/06/13 08:45:17;;;;;;;3.83;0.80;;;18.90;1.00;;;;;;5046433;28;20251;-54
2022/06/13 08:47:56;;;;;;;4.20;1.30;;;18.80;99.90;;;;;;5034386;28;20232;-55
2022/06/13 08:50:46;;;;;;;4.97;1.40;;;18.70;1.00;;;;;;5046907;28;20239;-57
2022/06/13 08:53:27;;;;;;;2.90;1.17;;;18.70;1.00;;;;;;5043505;28;20203;-54
2022/06/13 08:55:59;;;;;;;4.83;1.43;;;19.00;99.90;;;;;;5038469;28;20205;-54
2022/06/13 08:58:39;;;;;;;2.90;1.30;;;19.60;99.90;;;;;;5043642;28;20246;-56
2022/06/13 09:01:33;;;;;;;4.23;1.10;;;19.60;1.00;;;;;;5043194;28;20257;-55
2022/06/13 09:04:19;;;;;;;3.07;1.10;;;20.20;1.00;;;;;;5048861;28;20754;-55
2022/06/13 09:07:11;;;;;;;2.90;1.03;;;20.80;1.00;;;;;;5045278;28;20215;-54
2022/06/13 09:09:57;;;;;;;2.73;1.13;;;21.20;1.00;;;;;;5047577;28;20191;-54
2022/06/13 09:12:45;;;;;;;3.37;1.50;;;20.60;99.90;;;;;;5035990;28;20299;-54
2022/06/13 09:15:17;;;;;;;3.23;0.70;;;20.50;1.00;;;;;;5043269;28;20679;-55
2022/06/13 09:18:14;;;;;;;4.97;1.00;;;20.30;85.30;;;;;;5041305;28;20231;-55
2022/06/13 09:21:07;;;;;;;3.20;0.93;;;20.50;1.00;;;;;;5041103;28;20635;-54
2022/06/13 09:24:00;;;;;;;4.47;0.90;;;20.20;1.00;;;;;;5044108;28;20662;-55
2022/06/13 09:26:35;;;;;;;3.20;0.80;;;20.00;1.00;;;;;;5046754;28;20195;-55
2022/06/13 09:29:38;;;;;;;3.97;0.80;;;20.20;1.00;;;;;;5038211;28;20203;-55
2022/06/13 09:32:11;;;;;;;5.90;0.70;;;19.70;1.00;;;;;;5037860;28;20211;-54
2022/06/13 09:34:48;;;;;;;3.30;1.03;;;19.70;1.00;;;;;;5044027;28;20255;-54
2022/06/13 09:37:23;;;;;;;2.37;1.00;;;19.80;1.00;;;;;;5048833;28;20265;-55
2022/06/13 09:39:51;;;;;;;3.17;0.80;;;20.00;99.90;;;;;;5038272;28;20666;-54
2022/06/13 09:42:26;;;;;;;4.13;1.20;;;19.80;1.00;;;;;;5045116;28;20200;-54
2022/06/13 09:45:18;;;;;;;2.03;0.70;;;19.70;99.90;;;;;;5054772;28;20283;-54
2022/06/13 09:48:20;;;;;;;2.97;1.03;;;20.20;29.70;;;;;;5042670;28;20299;-55
2022/06/13 09:51:07;;;;;;;4.30;1.03;;;20.10;99.30;;;;;;5042127;28;20208;-55
2022/06/13 09:53:47;;;;;;;4.77;2.20;;;19.80;1.00;;;;;;5045547;28;20204;-54
2022/06/13 09:56:14;;;;;;;2.93;1.03;;;19.80;1.00;;;;;;5048326;28;20333;-54
2022/06/13 09:59:00;;;;;;;3.30;1.20;;;19.60;1.00;;;;;;5051013;28;20534;-54
2022/06/13 10:01:35;;;;;;;4.17;0.90;;;19.30;99.90;;;;;;5033405;28;20199;-54
2022/06/13 10:04:05;;;;;;;4.63;1.13;;;19.10;19.00;;;;;;5038873;28;20315;-55
2022/06/13 10:06:50;;;;;;;3.90;1.40;;;19.00;1.00;;;;;;5042557;28;20297;-53
2022/06/13 10:09:35;;;;;;;2.40;1.00;;;19.10;1.00;;;;;;5048739;28;20235;-54
2022/06/13 10:12:14;;;;;;;4.70;1.00;;;19.40;1.00;;;;;;5045553;28;20626;-54
2022/06/13 10:15:00;;;;;;;5.83;1.10;;;20.00;1.00;;;;;;5042217;28;20235;-54
2022/06/13 10:17:33;;;;;;;6.80;1.30;;;20.00;1.00;;;;;;5049694;28;20660;-57
2022/06/13 10:20:26;;;;;;;5.10;1.30;;;20.30;1.00;;;;;;5049557;28;20624;-54
2022/06/13 10:23:10;;;;;;;1.47;1.03;;;19.80;1.00;;;;;;5047630;28;20607;-53
2022/06/13 10:26:01;;;;;;;3.83;0.90;;;19.60;1.00;;;;;;5046384;28;20715;-54
2022/06/13 10:29:01;;;;;;;2.57;1.07;;;19.90;1.00;;;;;;5032792;28;20246;-54
2022/06/13 10:31:52;;;;;;;3.43;0.90;;;20.20;33.90;;;;;;5045280;28;20265;-57
2022/06/13 10:34:53;;;;;;;6.83;1.10;;;20.30;1.00;;;;;;5039856;28;20298;-55
2022/06/13 10:37:29;;;;;;;3.67;0.90;;;19.70;1.00;;;;;;5048460;28;20249;-54
2022/06/13 10:40:00;;;;;;;1.80;0.87;;;19.30;98.70;;;;;;5036611;28;20252;-55
2022/06/13 10:42:31;;;;;;;1.53;0.80;;;19.40;1.00;;;;;;5047226;28;20658;-55
2022/06/13 10:44:58;;;;;;;2.27;1.00;;;19.70;1.00;;;;;;5044479;28;20216;-55
2022/06/13 10:47:48;;;;;;;3.07;0.93;;;20.20;1.00;;;;;;5048976;28;20224;-54
2022/06/13 10:50:36;;;;;;;5.83;0.90;;;20.50;29.70;;;;;;5044677;28;20304;-55
2022/06/13 10:53:24;;;;;;;2.77;1.20;;;20.80;1.00;;;;;;5048600;28;20299;-54
2022/06/13 10:55:54;;;;;;;2.27;0.90;;;20.50;99.90;;;;;;5042634;28;20659;-54
2022/06/13 10:58:27;;;;;;;3.23;1.20;;;20.60;1.00;;;;;;5047059;28;20211;-55
2022/06/13 11:01:17;;;;;;;4.10;1.00;;;20.80;1.00;;;;;;5043245;28;20207;-55
2022/06/13 11:04:03;;;;;;;4.93;1.10;;;20.90;1.00;;;;;;5048983;28;20204;-55
2022/06/13 11:06:46;;;;;;;3.43;0.90;;;21.10;1.00;;;;;;5051896;28;20648;-54
2022/06/13 11:09:36;;;;;;;4.60;1.10;;;21.20;99.90;;;;;;5048243;28;20261;-54
2022/06/13 11:12:15;;;;;;;6.13;1.00;;;20.80;99.90;;;;;;5041785;28;20263;-54
2022/06/13 11:23:21;;;;;;;4.87;1.30;;;20.30;1.00;;;;;;5040733;28;20541;-54
2022/06/13 11:25:57;;;;;;;4.40;1.20;;;19.80;1.00;;;;;;5039887;28;20292;-54
2022/06/13 11:28:28;;;;;;;5.00;1.23;;;19.40;1.00;;;;;;5046110;28;20194;-55
2022/06/13 11:31:17;;;;;;;4.97;1.30;;;19.40;99.90;;;;;;5047012;28;20277;-54
2022/06/13 11:33:43;;;;;;;7.67;1.27;;;19.80;99.90;;;;;;5053084;28;20290;-55
2022/06/13 11:36:16;;;;;;;3.60;1.40;;;19.90;27.50;;;;;;5038603;28;20202;-54
2022/06/13 11:38:52;;;;;;;2.93;0.93;;;20.40;99.90;;;;;;5033683;28;20201;-53
2022/06/13 11:41:23;;;;;;;2.20;1.07;;;20.40;99.90;;;;;;5037818;28;20241;-54
2022/06/13 11:44:05;;;;;;;1.60;0.90;;;21.00;1.00;;;;;;5046004;28;20210;-53
2022/06/13 11:46:50;;;;;;;3.13;1.50;;;20.60;1.00;;;;;;5046729;28;20213;-55
2022/06/13 11:49:16;;;;;;;1.53;1.23;;;20.10;1.00;;;;;;5045016;28;20294;-56
2022/06/13 11:52:06;;;;;;;3.50;0.93;;;20.60;99.90;;;;;;5049232;28;20238;-53
2022/06/13 11:54:54;;;;;;;3.83;1.00;;;20.60;99.90;;;;;;5046048;28;20258;-54
2022/06/13 11:57:24;;;;;;;3.57;1.20;;;20.00;1.00;;;;;;5048111;28;20818;-53
2022/06/13 12:00:12;;;;;;;2.67;1.07;;;19.90;99.90;;;;;;5044018;28;20322;-53
2022/06/13 12:02:39;;;;;;;1.87;0.90;;;20.00;1.00;;;;;;5032924;28;20206;-55
2022/06/13 12:05:31;;;;;;;2.30;0.80;;;20.40;1.00;;;;;;5049113;28;20302;-54
2022/06/13 12:08:06;;;;;;;1.37;0.80;;;20.70;1.00;;;;;;5047258;28;20287;-55
2022/06/13 12:10:38;;;;;;;5.27;1.20;;;20.90;99.90;;;;;;5045555;28;21037;-54
2022/06/13 12:13:16;;;;;;;3.23;1.03;;;21.00;99.90;;;;;;5037499;28;20780;-55
2022/06/13 12:15:55;;;;;;;3.40;0.93;;;21.80;1.00;;;;;;5043355;28;20207;-55
2022/06/13 12:18:37;;;;;;;1.77;0.90;;;21.60;1.00;;;;;;5043026;28;20202;-54
2022/06/13 12:21:13;;;;;;;3.53;1.00;;;21.50;1.00;;;;;;5051070;28;20289;-52
2022/06/13 12:24:03;;;;;;;2.83;0.77;;;21.70;1.00;;;;;;5053904;28;20202;-56
2022/06/13 12:26:36;;;;;;;1.90;0.90;;;21.30;1.00;;;;;;5031503;28;20288;-54
2022/06/13 12:29:12;;;;;;;2.60;0.90;;;21.20;1.00;;;;;;5039681;28;20655;-54
2022/06/13 12:32:11;;;;;;;1.87;0.90;;;21.70;1.00;;;;;;5045594;28;20308;-55
2022/06/13 12:34:50;;;;;;;2.23;1.00;;;21.40;1.00;;;;;;5047851;28;20624;-56
2022/06/13 12:37:29;;;;;;;6.03;1.10;;;20.50;1.00;;;;;;5047404;28;20237;-54
2022/06/13 12:40:16;;;;;;;3.43;1.07;;;21.00;1.00;;;;;;5045971;28;20206;-56
2022/06/13 12:42:53;;;;;;;5.80;1.20;;;21.30;1.00;;;;;;5034293;28;20600;-54
2022/06/13 12:45:35;;;;;;;5.10;1.30;;;21.30;1.00;;;;;;5037408;28;20262;-55
2022/06/13 12:48:26;;;;;;;2.00;0.63;;;21.30;1.00;;;;;;5041996;28;20223;-55
2022/06/13 12:51:12;;;;;;;2.97;1.17;;;21.20;1.00;;;;;;5001464;28;20743;-55
2022/06/13 12:53:59;;;;;;;4.40;1.03;;;20.50;1.00;;;;;;5004919;28;20236;-56
2022/06/13 12:56:46;;;;;;;2.53;1.17;;;19.90;1.00;;;;;;4994654;28;20539;-54
2022/06/13 12:59:39;;;;;;;5.00;1.13;;;19.80;1.00;;;;;;5008748;28;20326;-54
2022/06/13 13:02:27;;;;;;;4.90;1.30;;;19.60;1.00;;;;;;4988827;28;20236;-53
2022/06/13 13:05:26;;;;;;;2.93;1.07;;;20.00;1.00;;;;;;5005505;28;20814;-55
2022/06/13 13:08:17;;;;;;;2.93;1.20;;;20.20;1.00;;;;;;4998738;28;20206;-54
2022/06/13 13:11:24;;;;;;;5.23;1.03;;;20.40;1.00;;;;;;5006576;28;20197;-55
2022/06/13 13:14:07;;;;;;;3.50;1.20;;;20.60;1.00;;;;;;4996009;28;20243;-62
2022/06/13 13:16:34;;;;;;;1.77;0.73;;;20.80;1.00;;;;;;5004600;28;20243;-63
2022/06/13 13:19:34;;;;;;;2.23;1.03;;;20.90;1.00;;;;;;5003106;28;20217;-62
2022/06/13 13:22:38;;;;;;;4.10;0.90;;;20.70;1.00;;;;;;4993214;28;20304;-62
2022/06/13 13:25:34;;;;;;;2.00;0.97;;;20.00;1.00;;;;;;4983934;28;20314;-61
2022/06/13 13:28:32;;;;;;;5.43;1.03;;;20.30;1.00;;;;;;5001432;28;21807;-54
2022/06/13 13:31:31;;;;;;;2.20;1.00;;;21.10;1.00;;;;;;5008805;28;20649;-62
2022/06/13 13:34:04;;;;;;;2.80;0.90;;;20.70;1.00;;;;;;4999209;28;21041;-53
2022/06/13 13:36:43;;;;;;;4.40;1.17;;;21.00;1.00;;;;;;4995708;28;20558;-54
2022/06/13 13:39:22;;;;;;;2.47;1.10;;;21.10;1.00;;;;;;5005678;28;20629;-55
2022/06/13 13:42:00;;;;;;;2.27;0.90;;;21.10;1.00;;;;;;5007326;28;20233;-54
2022/06/13 13:44:37;;;;;;;4.13;1.07;;;21.10;1.00;;;;;;4994686;28;20217;-54
2022/06/13 13:47:12;;;;;;;4.53;1.17;;;21.10;1.00;;;;;;4998995;28;20216;-55
2022/06/13 13:49:44;;;;;;;2.30;0.97;;;21.30;1.00;;;;;;5021849;28;20585;-54
2022/06/13 13:52:17;;;;;;;4.60;1.27;;;21.20;1.00;;;;;;5040540;28;20225;-54
2022/06/13 13:54:52;;;;;;;4.00;1.23;;;21.10;1.00;;;;;;5042179;28;20947;-54
2022/06/13 13:57:21;;;;;;;1.87;0.87;;;21.10;1.00;;;;;;5033854;28;20718;-53
2022/06/13 13:59:52;;;;;;;8.97;1.30;;;20.50;1.00;;;;;;5061875;28;20636;-55
2022/06/13 14:02:53;;;;;;;1.27;0.70;;;20.80;1.00;;;;;;5048240;28;20570;-55